createdAt,value
2019-04-10T00:12:56.177Z,92435.71
2019-04-10T00:28:01.178Z,92436.96
2019-04-10T00:43:03.856Z,92429.19
2019-04-10T00:58:06.413Z,92415.64
2019-04-10T01:13:10.334Z,92420.09
2019-04-10T01:28:14.494Z,92409.01
2019-04-10T01:43:19.882Z,92401.25
2019-04-10T01:58:23.294Z,92399.06
2019-04-10T02:13:26.276Z,92394.91
2019-04-10T02:28:29.196Z,92389.64
2019-04-10T02:43:33.778Z,92380.02
2019-04-10T02:58:36.469Z,92383.62
2019-04-10T03:13:39.063Z,92385.91
2019-04-10T03:28:41.645Z,92390.38
2019-04-10T03:43:45.755Z,92392.13
2019-04-10T03:58:49.445Z,92419.55
2019-04-10T04:13:52.293Z,92437.27
2019-04-10T04:28:55.715Z,92439.69
2019-04-10T04:43:58.568Z,92444.09
2019-04-10T04:59:01.477Z,92457.84
2019-04-10T05:14:04.882Z,92470.65
2019-04-10T05:29:08.975Z,92482.55
2019-04-10T05:44:13.411Z,92494.97
2019-04-10T05:59:17.478Z,92497.35
2019-04-10T06:14:20.054Z,92487.05
2019-04-10T06:29:23.267Z,92504.11
2019-04-10T06:44:28.005Z,92536.40
2019-04-10T06:59:32.456Z,92528.85
2019-04-10T07:14:36.960Z,92525.17
2019-04-10T07:29:40.721Z,92552.01
2019-04-10T07:44:43.922Z,92563.06
2019-04-10T07:59:47.900Z,92557.69
2019-04-10T08:14:52.061Z,92569.39
2019-04-10T08:29:54.853Z,92550.59
2019-04-10T08:44:58.957Z,92570.63
2019-04-10T09:00:02.672Z,92581.58
2019-04-10T09:15:06.330Z,92586.23
2019-04-10T09:30:09.322Z,92575.95
2019-04-10T09:45:13.535Z,92570.72
2019-04-10T10:00:16.711Z,92570.80
2019-04-10T10:15:19.562Z,92560.11
2019-04-10T10:30:23.049Z,92550.44
2019-04-10T10:45:29.060Z,92540.11
2019-04-10T11:00:31.850Z,92561.00
2019-04-10T11:15:37.705Z,92555.73
2019-04-10T11:30:41.154Z,92548.51
2019-04-10T11:45:51.262Z,92547.92
2019-04-10T12:00:52.412Z,92545.13
2019-04-10T12:15:54.689Z,92543.35
2019-04-10T12:30:57.533Z,92531.61
2019-04-10T12:46:02.382Z,92533.92
2019-04-10T13:01:06.776Z,92530.97
2019-04-10T13:16:09.881Z,92534.95
2019-04-10T13:31:12.980Z,92535.89
2019-04-10T13:46:16.934Z,92536.39
2019-04-10T14:01:27.148Z,92537.22
2019-04-10T14:16:30.906Z,92537.44
2019-04-10T14:31:37.378Z,92548.13
2019-04-10T14:46:40.781Z,92545.50
2019-04-10T15:01:44.331Z,92537.30
2019-04-10T15:16:56.470Z,92523.80
2019-04-10T15:31:52.954Z,92528.70
2019-04-10T15:47:08.695Z,92521.38
2019-04-10T16:02:01.891Z,92528.02
2019-04-10T16:32:39.752Z,92541.78
2019-04-10T16:47:44.030Z,92538.79
2019-04-10T17:02:49.056Z,92553.67
2019-04-10T17:17:52.966Z,92567.12
2019-04-10T17:32:56.372Z,92575.64
2019-04-10T17:47:59.233Z,92595.71
2019-04-10T18:03:03.312Z,92606.14
2019-04-10T18:18:07.316Z,92629.16
2019-04-10T18:33:12.072Z,92642.37
2019-04-10T18:48:14.814Z,92660.16
2019-04-10T19:03:46.226Z,92673.16
2019-04-10T19:18:43.818Z,92677.23
2019-04-10T19:33:47.004Z,92671.48
2019-04-10T19:48:51.620Z,92667.01
2019-04-10T20:03:54.456Z,92654.52
2019-04-10T20:18:57.160Z,92641.62
2019-04-10T20:34:00.747Z,92623.03
2019-04-10T20:49:04.793Z,92620.56
2019-04-10T21:04:07.728Z,92618.25
2019-04-10T21:19:11.128Z,92627.09
2019-04-10T21:34:19.629Z,92623.52
2019-04-10T21:49:24.061Z,92621.35
2019-04-10T22:04:27.358Z,92617.57
2019-04-10T22:19:30.601Z,92614.83
2019-04-10T22:34:34.295Z,92616.20
2019-04-10T22:49:37.131Z,92643.39
2019-04-10T23:04:42.751Z,92634.79
2019-04-10T23:19:46.530Z,92630.80
2019-04-10T23:34:50.692Z,92620.95
2019-04-10T23:49:54.111Z,92623.87
